createdAt,value
2017-11-03T00:00:27.168Z,59.91
2017-11-03T00:02:56.191Z,59.89
2017-11-03T00:05:24.638Z,59.86
2017-11-03T00:07:53.005Z,59.92
2017-11-03T00:10:21.329Z,60.02
2017-11-03T00:12:49.618Z,59.85
2017-11-03T00:15:18.164Z,59.85
2017-11-03T00:17:46.437Z,59.92
2017-11-03T00:20:14.939Z,59.91
2017-11-03T00:22:43.488Z,59.89
2017-11-03T00:25:11.865Z,59.92
2017-11-03T00:27:40.220Z,59.88
2017-11-03T00:30:08.824Z,59.89
2017-11-03T00:32:37.100Z,59.94
2017-11-03T00:35:05.408Z,59.91
2017-11-03T00:37:33.831Z,59.75
2017-11-03T00:40:02.214Z,59.81
2017-11-03T00:42:30.713Z,59.75
2017-11-03T00:44:59.065Z,59.80
2017-11-03T00:47:27.524Z,59.84
2017-11-03T00:49:55.840Z,59.70
2017-11-03T00:52:24.381Z,59.82
2017-11-03T00:54:52.697Z,59.75
2017-11-03T00:57:21.214Z,59.75
2017-11-03T00:59:49.522Z,59.66
2017-11-03T01:02:17.905Z,59.67
2017-11-03T01:04:46.179Z,59.68
2017-11-03T01:07:14.585Z,59.70
2017-11-03T01:09:42.984Z,59.69
2017-11-03T01:12:11.611Z,59.74
2017-11-03T01:14:40.148Z,59.64
2017-11-03T01:17:08.495Z,59.73
2017-11-03T01:19:36.812Z,59.68
2017-11-03T01:22:05.271Z,59.72
2017-11-03T01:24:33.617Z,59.65
2017-11-03T01:27:02.242Z,59.66
2017-11-03T01:29:30.658Z,59.67
2017-11-03T01:31:59.004Z,59.57
2017-11-03T01:34:27.463Z,59.58
2017-11-03T01:36:55.764Z,59.62
2017-11-03T01:39:24.215Z,59.58
2017-11-03T01:41:52.555Z,59.58
2017-11-03T01:44:20.980Z,59.55
2017-11-03T01:46:49.293Z,59.58
2017-11-03T01:49:17.708Z,59.61
2017-11-03T01:51:46.024Z,59.55
2017-11-03T01:54:14.340Z,59.51
2017-11-03T01:56:42.711Z,59.52
2017-11-03T01:59:11.024Z,59.58
2017-11-03T02:01:39.348Z,59.54
2017-11-03T02:04:08.415Z,59.55
2017-11-03T02:06:36.771Z,59.48
2017-11-03T02:09:05.706Z,59.55
2017-11-03T02:11:34.069Z,59.48
2017-11-03T02:14:02.364Z,59.49
2017-11-03T02:16:30.844Z,59.53
2017-11-03T02:18:59.188Z,59.50
2017-11-03T02:21:30.271Z,59.58
2017-11-03T02:23:58.723Z,59.65
2017-11-03T02:26:27.095Z,59.59
2017-11-03T02:28:55.413Z,59.53
2017-11-03T02:31:23.862Z,59.62
2017-11-03T02:33:52.152Z,59.45
2017-11-03T02:36:20.519Z,59.52
2017-11-03T02:38:48.892Z,59.52
2017-11-03T02:41:17.244Z,59.63
2017-11-03T02:43:45.521Z,59.63
2017-11-03T02:46:13.836Z,59.51
2017-11-03T02:48:42.119Z,59.50
2017-11-03T02:51:10.583Z,59.58
2017-11-03T02:53:38.985Z,59.49
2017-11-03T02:56:07.337Z,59.45
2017-11-03T02:58:35.923Z,59.55
2017-11-03T03:01:04.544Z,59.50
2017-11-03T03:03:32.804Z,59.51
2017-11-03T03:06:01.127Z,59.48
2017-11-03T03:08:29.408Z,59.51
2017-11-03T03:10:57.744Z,59.50
2017-11-03T03:13:26.130Z,59.58
2017-11-03T03:15:54.579Z,59.60
2017-11-03T03:18:23.015Z,59.61
2017-11-03T03:20:51.319Z,59.57
2017-11-03T03:23:19.709Z,59.63
2017-11-03T03:25:48.127Z,59.62
2017-11-03T03:28:16.552Z,59.58
2017-11-03T03:30:44.886Z,59.59
2017-11-03T03:33:13.163Z,59.61
2017-11-03T03:35:41.608Z,59.61
2017-11-03T03:38:09.887Z,59.62
2017-11-03T03:40:38.423Z,59.52
2017-11-03T03:43:06.989Z,59.64
2017-11-03T03:45:35.408Z,59.67
2017-11-03T03:48:03.795Z,59.63
2017-11-03T03:50:32.100Z,59.67
2017-11-03T03:53:00.519Z,59.70
2017-11-03T03:55:28.823Z,59.65
2017-11-03T03:57:57.128Z,59.62
2017-11-03T04:00:25.467Z,59.64
2017-11-03T04:02:53.840Z,59.62
2017-11-03T04:05:22.152Z,59.62
2017-11-03T04:07:50.452Z,59.57
2017-11-03T04:10:18.910Z,59.67
2017-11-03T04:12:47.269Z,59.58
2017-11-03T04:15:15.681Z,59.68
2017-11-03T04:17:44.227Z,59.70
2017-11-03T04:20:12.623Z,59.73
2017-11-03T04:22:40.924Z,59.61
2017-11-03T04:25:09.228Z,59.67
2017-11-03T04:27:37.564Z,59.54
2017-11-03T04:30:05.927Z,59.65
2017-11-03T04:32:34.320Z,59.63
2017-11-03T04:35:02.591Z,59.65
2017-11-03T04:37:31.058Z,59.69
2017-11-03T04:39:59.320Z,59.65
2017-11-03T04:42:27.656Z,59.67
2017-11-03T04:44:56.015Z,59.70
2017-11-03T04:47:24.364Z,59.66
2017-11-03T04:49:52.676Z,59.67
2017-11-03T04:52:21.035Z,59.68
2017-11-03T04:54:49.329Z,59.70
2017-11-03T04:57:17.653Z,59.68
2017-11-03T04:59:45.981Z,59.60
2017-11-03T05:02:14.760Z,59.61
2017-11-03T05:04:43.192Z,59.67
2017-11-03T05:07:11.501Z,59.75
2017-11-03T05:09:39.808Z,59.67
2017-11-03T05:12:08.263Z,59.64
2017-11-03T05:14:36.581Z,59.67
2017-11-03T05:17:04.992Z,59.62
2017-11-03T05:19:33.260Z,59.66
2017-11-03T05:22:01.612Z,59.67
2017-11-03T05:24:29.884Z,59.54
2017-11-03T05:26:58.257Z,59.63
2017-11-03T05:29:27.074Z,59.67
2017-11-03T05:31:55.606Z,59.68
2017-11-03T05:34:24.004Z,59.73
2017-11-03T05:36:52.342Z,59.79
2017-11-03T05:39:20.654Z,59.87
2017-11-03T05:41:48.964Z,60.04
2017-11-03T05:44:17.272Z,60.28
2017-11-03T05:46:45.720Z,60.25
2017-11-03T05:49:14.109Z,60.27
2017-11-03T05:51:42.444Z,60.27
2017-11-03T05:54:10.751Z,60.32
2017-11-03T05:56:39.078Z,60.46
2017-11-03T05:59:07.397Z,60.54
2017-11-03T06:01:35.837Z,60.72
2017-11-03T06:04:04.192Z,60.82
2017-11-03T06:06:32.522Z,60.98
2017-11-03T06:09:00.773Z,61.22
2017-11-03T06:11:29.344Z,61.37
2017-11-03T06:13:57.613Z,61.42
2017-11-03T06:16:25.930Z,61.73
2017-11-03T06:18:54.304Z,61.83
2017-11-03T06:21:22.701Z,61.67
2017-11-03T06:23:51.108Z,61.63
2017-11-03T06:26:19.611Z,61.52
2017-11-03T06:28:47.912Z,61.30
2017-11-03T06:31:16.371Z,61.22
2017-11-03T06:33:44.697Z,61.03
2017-11-03T06:36:13.088Z,60.83
2017-11-03T06:38:41.631Z,60.71
2017-11-03T06:41:09.950Z,60.64
2017-11-03T06:43:38.900Z,61.30
2017-11-03T06:46:07.263Z,61.01
2017-11-03T06:48:35.642Z,60.92
2017-11-03T06:51:04.016Z,60.77
2017-11-03T06:53:32.303Z,60.40
2017-11-03T06:56:00.809Z,60.15
2017-11-03T06:58:29.131Z,59.86
2017-11-03T07:00:57.495Z,59.73
2017-11-03T07:03:25.876Z,59.68
2017-11-03T07:05:54.287Z,59.56
2017-11-03T07:08:22.692Z,59.59
2017-11-03T07:10:51.003Z,59.67
2017-11-03T07:13:19.292Z,59.70
2017-11-03T07:15:47.803Z,59.71
2017-11-03T07:18:16.199Z,59.76
2017-11-03T07:20:45.478Z,59.73
2017-11-03T07:23:15.284Z,59.82
2017-11-03T07:25:45.339Z,59.76
2017-11-03T07:28:15.001Z,59.75
2017-11-03T07:30:44.063Z,59.76
2017-11-03T07:33:12.561Z,59.75
2017-11-03T07:35:41.462Z,59.74
2017-11-03T07:38:09.812Z,59.71
2017-11-03T07:40:39.812Z,59.70
2017-11-03T07:43:08.446Z,59.67
2017-11-03T07:45:37.844Z,59.62
2017-11-03T07:48:07.100Z,59.63
2017-11-03T07:50:35.714Z,59.63
2017-11-03T07:53:04.468Z,59.62
2017-11-03T07:55:33.853Z,59.61
2017-11-03T07:58:02.681Z,59.55
2017-11-03T08:00:31.855Z,59.51
2017-11-03T08:03:01.076Z,59.53
2017-11-03T08:05:32.156Z,59.52
2017-11-03T08:08:01.701Z,59.49
2017-11-03T08:10:30.755Z,59.50
2017-11-03T08:12:59.176Z,59.46
2017-11-03T08:15:27.860Z,59.45
2017-11-03T08:17:56.923Z,59.43
2017-11-03T08:20:27.992Z,59.42
2017-11-03T08:22:56.864Z,59.38
2017-11-03T08:25:25.582Z,59.40
2017-11-03T08:27:56.085Z,59.40
2017-11-03T08:30:24.935Z,59.35
2017-11-03T08:32:53.325Z,59.37
2017-11-03T08:35:21.712Z,59.37
2017-11-03T08:37:50.021Z,59.35
2017-11-03T08:40:18.368Z,59.41
2017-11-03T08:42:46.820Z,59.38
2017-11-03T08:45:15.157Z,59.34
2017-11-03T08:47:44.143Z,59.28
2017-11-03T08:50:12.494Z,59.09
2017-11-03T08:52:40.959Z,58.99
2017-11-03T08:55:09.359Z,58.80
2017-11-03T08:57:37.689Z,58.64
2017-11-03T09:00:06.752Z,58.23
2017-11-03T09:02:35.243Z,58.16
2017-11-03T09:05:03.828Z,58.12
2017-11-03T09:07:32.306Z,57.43
2017-11-03T09:10:00.647Z,56.83
2017-11-03T09:12:29.085Z,56.34
2017-11-03T09:14:57.418Z,56.11
2017-11-03T09:17:25.785Z,56.33
2017-11-03T09:19:54.647Z,56.19
2017-11-03T09:22:23.155Z,56.30
2017-11-03T09:24:51.653Z,56.47
2017-11-03T09:27:20.088Z,56.48
2017-11-03T09:29:48.420Z,56.42
2017-11-03T09:32:16.809Z,56.50
2017-11-03T09:34:45.099Z,56.57
2017-11-03T09:37:13.600Z,56.48
2017-11-03T09:39:41.904Z,56.51
2017-11-03T09:42:10.250Z,56.57
2017-11-03T09:44:38.616Z,56.64
2017-11-03T09:47:07.055Z,56.58
2017-11-03T09:49:35.383Z,56.56
2017-11-03T09:52:03.708Z,56.73
2017-11-03T09:54:31.993Z,56.53
2017-11-03T09:57:00.309Z,56.44
2017-11-03T09:59:28.569Z,56.45
2017-11-03T10:01:56.948Z,56.36
2017-11-03T10:04:25.231Z,56.38
2017-11-03T10:06:53.568Z,56.51
2017-11-03T10:09:22.015Z,56.58
2017-11-03T10:11:50.529Z,56.41
2017-11-03T10:14:18.811Z,56.47
2017-11-03T10:16:47.167Z,56.47
2017-11-03T10:19:15.565Z,56.26
2017-11-03T10:21:43.888Z,56.30
2017-11-03T10:24:12.172Z,56.35
2017-11-03T10:26:40.513Z,56.47
2017-11-03T10:29:08.863Z,55.78
2017-11-03T10:31:37.260Z,56.00
2017-11-03T10:34:05.603Z,56.15
2017-11-03T10:36:33.895Z,56.21
2017-11-03T10:39:02.384Z,56.28
2017-11-03T10:41:30.672Z,56.30
2017-11-03T10:43:59.797Z,56.23
2017-11-03T10:46:28.229Z,56.32
2017-11-03T10:48:56.711Z,56.34
2017-11-03T10:51:25.235Z,56.46
2017-11-03T10:53:53.660Z,56.68
2017-11-03T10:56:22.188Z,56.79
2017-11-03T10:58:50.452Z,56.88
2017-11-03T11:01:18.928Z,56.82
2017-11-03T11:03:47.268Z,56.83
2017-11-03T11:06:15.624Z,56.90
2017-11-03T11:08:44.080Z,56.94
2017-11-03T11:11:12.383Z,57.16
2017-11-03T11:13:40.833Z,57.22
2017-11-03T11:16:09.211Z,57.23
2017-11-03T11:18:37.565Z,57.25
2017-11-03T11:21:05.992Z,57.19
2017-11-03T11:23:34.546Z,57.24
2017-11-03T11:26:03.152Z,57.27
2017-11-03T11:28:31.529Z,57.30
2017-11-03T11:30:59.942Z,57.15
2017-11-03T11:33:28.324Z,57.31
2017-11-03T11:35:56.640Z,57.46
2017-11-03T11:38:24.980Z,57.14
2017-11-03T11:40:53.356Z,57.03
2017-11-03T11:43:21.703Z,56.86
2017-11-03T11:45:50.141Z,56.95
2017-11-03T11:48:18.495Z,56.60
2017-11-03T11:50:47.124Z,56.56
2017-11-03T11:53:15.560Z,56.57
2017-11-03T11:55:44.076Z,56.57
2017-11-03T11:58:14.047Z,56.53
2017-11-03T12:00:42.988Z,56.42
2017-11-03T12:03:11.656Z,56.37
2017-11-03T12:05:43.660Z,56.42
2017-11-03T12:08:12.773Z,56.39
2017-11-03T12:10:41.187Z,56.52
2017-11-03T12:13:09.746Z,56.51
2017-11-03T12:15:38.279Z,56.41
2017-11-03T12:18:06.596Z,56.38
2017-11-03T12:20:34.940Z,56.30
2017-11-03T12:23:03.827Z,56.33
2017-11-03T12:25:32.231Z,56.40
2017-11-03T12:28:01.260Z,56.45
2017-11-03T12:30:30.063Z,56.41
2017-11-03T12:32:58.723Z,56.50
2017-11-03T12:35:27.116Z,56.44
2017-11-03T12:37:55.421Z,56.44
2017-11-03T12:40:23.779Z,56.53
2017-11-03T12:42:52.043Z,56.51
2017-11-03T12:45:20.363Z,56.86
2017-11-03T12:47:48.835Z,57.35
2017-11-03T12:50:17.172Z,57.23
2017-11-03T12:52:45.536Z,57.14
2017-11-03T12:55:14.062Z,57.17
2017-11-03T12:57:42.338Z,57.17
2017-11-03T13:00:10.763Z,57.24
2017-11-03T13:02:40.486Z,57.37
2017-11-03T13:05:09.229Z,57.41
2017-11-03T13:07:40.749Z,57.39
2017-11-03T13:10:11.745Z,57.42
2017-11-03T13:12:40.503Z,57.53
2017-11-03T13:15:10.634Z,57.60
2017-11-03T13:17:41.684Z,57.63
2017-11-03T13:20:10.764Z,57.62
2017-11-03T13:22:40.059Z,57.51
2017-11-03T13:25:08.961Z,57.18
2017-11-03T13:27:38.163Z,57.06
2017-11-03T13:30:09.307Z,57.14
2017-11-03T13:32:38.332Z,57.21
2017-11-03T13:35:07.508Z,57.29
2017-11-03T13:37:36.244Z,57.24
2017-11-03T13:40:05.377Z,57.03
2017-11-03T13:42:33.993Z,56.92
2017-11-03T13:45:04.210Z,57.34
2017-11-03T13:47:33.744Z,57.48
2017-11-03T13:50:03.223Z,57.48
2017-11-03T13:52:32.270Z,57.44
2017-11-03T13:55:02.972Z,57.48
2017-11-03T13:57:31.446Z,57.49
2017-11-03T14:00:00.280Z,57.49
2017-11-03T14:02:30.605Z,57.52
2017-11-03T14:04:59.432Z,57.54
2017-11-03T14:07:27.913Z,57.54
2017-11-03T14:09:56.421Z,57.58
2017-11-03T14:12:25.435Z,57.65
2017-11-03T14:14:53.818Z,57.67
2017-11-03T14:17:22.821Z,57.69
2017-11-03T14:19:51.595Z,57.70
2017-11-03T14:22:20.099Z,57.68
2017-11-03T14:24:48.815Z,57.72
2017-11-03T14:27:17.224Z,57.74
2017-11-03T14:29:45.605Z,57.78
2017-11-03T14:32:14.556Z,57.77
2017-11-03T14:34:43.472Z,57.79
2017-11-03T14:37:11.930Z,57.83
2017-11-03T14:39:40.532Z,57.82
2017-11-03T14:42:09.244Z,57.82
2017-11-03T14:44:37.684Z,57.83
2017-11-03T14:47:05.996Z,57.83
2017-11-03T14:49:35.083Z,57.83
2017-11-03T14:52:03.536Z,58.15
2017-11-03T14:54:31.900Z,57.99
2017-11-03T14:57:00.217Z,57.99
2017-11-03T14:59:29.352Z,58.00
2017-11-03T15:01:57.768Z,58.01
2017-11-03T15:04:26.143Z,58.04
2017-11-03T15:06:54.455Z,58.04
2017-11-03T15:09:22.892Z,58.10
2017-11-03T15:11:51.343Z,58.12
2017-11-03T15:14:19.660Z,58.19
2017-11-03T15:16:48.243Z,58.25
2017-11-03T15:19:19.144Z,58.27
2017-11-03T15:21:47.833Z,58.38
2017-11-03T15:24:16.869Z,58.31
2017-11-03T15:26:45.396Z,58.31
2017-11-03T15:29:14.696Z,58.38
2017-11-03T15:31:43.140Z,58.42
2017-11-03T15:34:12.027Z,58.41
2017-11-03T15:36:40.407Z,58.42
2017-11-03T15:39:08.696Z,58.42
2017-11-03T15:41:37.191Z,58.38
2017-11-03T15:44:05.540Z,58.37
2017-11-03T15:46:33.886Z,58.36
2017-11-03T15:49:02.289Z,58.36
2017-11-03T15:51:30.611Z,58.36
2017-11-03T15:53:58.914Z,58.32
2017-11-03T15:56:27.327Z,58.29
2017-11-03T15:58:55.612Z,58.30
2017-11-03T16:01:24.016Z,58.30
2017-11-03T16:03:52.381Z,58.32
2017-11-03T16:06:20.713Z,58.31
2017-11-03T16:08:49.030Z,58.32
2017-11-03T16:11:17.351Z,58.30
2017-11-03T16:13:46.216Z,58.28
2017-11-03T16:16:14.540Z,58.28
2017-11-03T16:18:42.855Z,58.27
2017-11-03T16:21:11.359Z,58.27
2017-11-03T16:23:39.774Z,58.26
2017-11-03T16:26:09.295Z,58.23
2017-11-03T16:28:37.584Z,58.27
2017-11-03T16:31:06.081Z,58.23
2017-11-03T16:33:34.366Z,58.25
2017-11-03T16:36:02.703Z,58.24
2017-11-03T16:38:31.299Z,58.26
2017-11-03T16:40:59.617Z,58.23
2017-11-03T16:43:28.024Z,58.21
2017-11-03T16:45:56.343Z,58.23
2017-11-03T16:48:24.619Z,58.23
2017-11-03T16:50:52.929Z,58.24
2017-11-03T16:53:21.232Z,58.26
2017-11-03T16:55:49.663Z,58.26
2017-11-03T16:58:18.064Z,58.22
2017-11-03T17:00:46.444Z,58.24
2017-11-03T17:03:14.865Z,58.24
2017-11-03T17:05:43.429Z,58.24
2017-11-03T17:08:12.183Z,58.22
2017-11-03T17:10:40.541Z,58.22
2017-11-03T17:13:09.088Z,58.23
2017-11-03T17:15:37.384Z,58.19
2017-11-03T17:18:05.665Z,57.87
2017-11-03T17:20:34.281Z,57.59
2017-11-03T17:23:02.616Z,57.55
2017-11-03T17:25:30.972Z,57.59
2017-11-03T17:27:59.386Z,57.70
2017-11-03T17:30:27.824Z,57.64
2017-11-03T17:32:56.202Z,57.70
2017-11-03T17:35:26.896Z,57.72
2017-11-03T17:37:55.333Z,57.79
2017-11-03T17:40:23.687Z,57.77
2017-11-03T17:42:51.996Z,57.81
2017-11-03T17:45:20.332Z,57.85
2017-11-03T17:47:48.751Z,57.80
2017-11-03T17:50:17.165Z,57.79
2017-11-03T17:52:45.736Z,57.88
2017-11-03T17:55:14.922Z,57.87
2017-11-03T17:57:43.304Z,57.87
2017-11-03T18:00:11.807Z,57.88
2017-11-03T18:02:40.071Z,57.93
2017-11-03T18:05:08.735Z,57.91
2017-11-03T18:07:37.170Z,57.91
2017-11-03T18:10:05.871Z,58.00
2017-11-03T18:12:34.614Z,57.94
2017-11-03T18:15:03.612Z,57.94
2017-11-03T18:17:32.644Z,57.94
2017-11-03T18:20:00.967Z,57.95
2017-11-03T18:22:29.399Z,58.17
2017-11-03T18:24:57.673Z,58.11
2017-11-03T18:27:26.052Z,58.23
2017-11-03T18:29:54.891Z,58.29
2017-11-03T18:32:23.195Z,58.37
2017-11-03T18:34:51.531Z,58.35
2017-11-03T18:37:20.139Z,58.38
2017-11-03T18:39:48.662Z,58.43
2017-11-03T18:42:17.024Z,58.42
2017-11-03T18:44:45.660Z,58.43
2017-11-03T18:47:13.994Z,58.42
2017-11-03T18:49:42.523Z,58.49
2017-11-03T18:52:11.860Z,58.52
2017-11-03T18:54:40.413Z,58.53
2017-11-03T18:57:08.726Z,58.63
2017-11-03T18:59:37.940Z,58.61
2017-11-03T19:02:15.221Z,58.75
2017-11-03T19:04:43.645Z,58.72
2017-11-03T19:07:12.165Z,58.74
2017-11-03T19:09:40.585Z,58.71
2017-11-03T19:12:09.123Z,58.71
2017-11-03T19:14:38.917Z,58.69
2017-11-03T19:17:08.678Z,58.69
2017-11-03T19:19:37.327Z,58.78
2017-11-03T19:22:05.652Z,58.76
2017-11-03T19:24:33.923Z,58.74
2017-11-03T19:27:02.656Z,58.78
2017-11-03T19:29:31.121Z,58.78
2017-11-03T19:32:00.104Z,58.78
2017-11-03T19:34:30.390Z,58.79
2017-11-03T19:36:58.773Z,58.82
2017-11-03T19:39:27.191Z,58.81
2017-11-03T19:41:55.925Z,58.81
2017-11-03T19:44:24.260Z,58.77
2017-11-03T19:46:52.769Z,58.76
2017-11-03T19:49:21.181Z,58.76
2017-11-03T19:51:49.675Z,58.76
2017-11-03T19:54:18.135Z,58.78
2017-11-03T19:56:46.473Z,58.73
2017-11-03T19:59:16.744Z,58.80
2017-11-03T20:01:45.280Z,58.80
2017-11-03T20:04:13.760Z,58.79
2017-11-03T20:06:42.148Z,58.77
2017-11-03T20:09:10.424Z,58.81
2017-11-03T20:11:39.302Z,58.79
2017-11-03T20:14:08.004Z,58.75
2017-11-03T20:16:36.764Z,58.75
2017-11-03T20:19:07.320Z,58.73
2017-11-03T20:21:36.086Z,58.72
2017-11-03T20:24:04.705Z,58.71
2017-11-03T20:26:33.157Z,58.70
2017-11-03T20:29:02.507Z,58.68
2017-11-03T20:31:30.965Z,58.65
2017-11-03T20:34:01.305Z,58.62
2017-11-03T20:36:29.785Z,58.63
2017-11-03T20:38:58.099Z,58.62
2017-11-03T20:41:27.179Z,58.62
2017-11-03T20:43:55.609Z,58.61
2017-11-03T20:46:24.104Z,58.61
2017-11-03T20:48:52.628Z,58.63
2017-11-03T20:51:21.140Z,58.58
2017-11-03T20:53:49.844Z,58.60
2017-11-03T20:56:18.294Z,58.60
2017-11-03T20:58:46.577Z,58.64
2017-11-03T21:01:14.963Z,58.63
2017-11-03T21:03:43.484Z,58.65
2017-11-03T21:06:12.565Z,58.68
2017-11-03T21:08:41.012Z,58.63
2017-11-03T21:11:09.454Z,58.64
2017-11-03T21:13:39.649Z,58.65
2017-11-03T21:16:08.332Z,58.67
2017-11-03T21:18:37.046Z,58.62
2017-11-03T21:21:05.712Z,58.57
2017-11-03T21:23:34.208Z,58.61
2017-11-03T21:26:03.165Z,58.66
2017-11-03T21:28:31.983Z,58.66
2017-11-03T21:31:00.393Z,58.67
2017-11-03T21:33:29.934Z,58.68
2017-11-03T21:35:58.726Z,58.71
2017-11-03T21:38:27.118Z,58.66
2017-11-03T21:40:55.869Z,58.60
2017-11-03T21:43:26.494Z,58.50
2017-11-03T21:45:55.250Z,58.39
2017-11-03T21:48:24.640Z,58.44
2017-11-03T21:50:56.318Z,58.24
2017-11-03T21:53:27.178Z,58.06
2017-11-03T21:55:55.891Z,57.85
2017-11-03T21:58:26.834Z,57.67
2017-11-03T22:00:55.679Z,57.56
2017-11-03T22:03:26.644Z,57.47
2017-11-03T22:05:56.526Z,57.35
2017-11-03T22:08:25.024Z,57.27
2017-11-03T22:10:53.449Z,57.19
2017-11-03T22:13:21.861Z,57.12
2017-11-03T22:15:50.321Z,57.14
2017-11-03T22:18:19.223Z,57.05
2017-11-03T22:20:47.737Z,56.71
2017-11-03T22:23:16.024Z,56.53
2017-11-03T22:25:44.328Z,56.39
2017-11-03T22:28:12.697Z,56.19
2017-11-03T22:30:41.144Z,56.25
2017-11-03T22:33:09.451Z,56.16
2017-11-03T22:35:38.046Z,56.07
2017-11-03T22:38:06.471Z,56.18
2017-11-03T22:40:34.798Z,56.28
2017-11-03T22:43:03.256Z,56.44
2017-11-03T22:45:31.583Z,56.53
2017-11-03T22:47:59.976Z,56.62
2017-11-03T22:50:28.279Z,56.76
2017-11-03T22:52:56.567Z,56.71
2017-11-03T22:55:24.876Z,56.69
2017-11-03T22:57:53.152Z,56.61
2017-11-03T23:00:22.050Z,56.57
2017-11-03T23:02:50.419Z,56.55
2017-11-03T23:05:18.730Z,56.44
2017-11-03T23:07:47.956Z,56.51
2017-11-03T23:10:22.929Z,56.38
2017-11-03T23:12:54.361Z,56.26
2017-11-03T23:15:23.016Z,56.32
2017-11-03T23:17:52.771Z,56.27
2017-11-03T23:20:23.580Z,56.19
2017-11-03T23:22:52.608Z,56.11
2017-11-03T23:25:23.065Z,56.03
2017-11-03T23:27:51.646Z,55.97
2017-11-03T23:30:20.742Z,56.00
2017-11-03T23:32:49.688Z,55.85
2017-11-03T23:35:18.149Z,55.83
2017-11-03T23:37:46.429Z,55.78
2017-11-03T23:40:14.782Z,55.74
2017-11-03T23:42:43.095Z,55.69
2017-11-03T23:45:11.455Z,55.63
2017-11-03T23:47:39.779Z,55.58
2017-11-03T23:50:08.350Z,55.58
2017-11-03T23:52:36.884Z,55.65
2017-11-03T23:55:05.200Z,55.71
2017-11-03T23:57:34.292Z,55.58
